AirNav   Pilot Hours Calculator
 
 1599 users online  

IS86 Hendrix Airport
Buckingham, Illinois, USA

GOING TO BUCKINGHAM?


FAA INFORMATION EFFECTIVE 07 OCTOBER 2021

Location

FAA Identifier: IS86
Lat/Long: 41-02-30.1160N 088-11-30.1850W
41-02.501933N 088-11.503083W
41.0416989,-88.1917181
(estimated)
Elevation: 656 ft. / 200 m (estimated)
Variation: 00W (1985)
Time zone: UTC -5 (UTC -6 during Standard Time)
Zip code: 60917

Airport Operations

Airport use: Private use. Permission required prior to landing
Activation date: 02/1982
Control tower: no
ARTCC: CHICAGO CENTER
FSS: KANKAKEE FLIGHT SERVICE STATION
Attendance: UNATNDD
Wind indicator: yes
Segmented circle: no

Airport Communications

WX AWOS-3 at IKK (16 nm E): 128.475 (815-939-4044)

Nearby radio navigation aids

VOR radial/distance  VOR name  Freq  Var
EONr231/22.7PEOTONE VORTAC113.2002E
RBSr355/27.6ROBERTS VOR/DME116.8002E
PNTr059/27.9PONTIAC VOR/DME109.6003E
JOTr167/30.8JOLIET VOR/DME112.3002E
CGTr223/39.6CHICAGO HEIGHTS VORTAC114.2002E

 
NDB name  Hdg/Dist  Freq  Var  ID
LUKOW276/13.127200EIK .. -.-

Airport Services

Runway Information

Runway 18/36

Dimensions: 2300 x 100 ft. / 701 x 30 m
Surface: turf
RUNWAY 18  RUNWAY 36
Traffic pattern: leftleft
Obstructions: nonepline, 360 ft. from runway

Airport Ownership and Management from official FAA records

Ownership: Privately-owned
Owner: LARRY L. HENDRIX
4950 S 17000 W RD
BUCKINGHAM, IL 60917
Phone 815-693-9084
Manager: Phone 815-365-2240

Airport Operational Statistics

Aircraft based on the field: 1
Multi engine airplanes: 1
    

Additional Remarks

FOR CD CTC CHICAGO ARTCC AT 630-906-8921.

Instrument Procedures

There are no published instrument procedures at IS86.

Some nearby airports with instrument procedures:

KIKK - Greater Kankakee Airport (16 nm E)
KPNT - Pontiac Municipal Airport (21 nm W)
C09 - Morris Municipal Airport-James R. Washburn Field (25 nm NW)
C56 - Bult Field Airport (31 nm NE)
KLOT - Lewis University Airport (34 nm N)
 
Loc | Ops | Rwys | IFR | FBO | Links
Com | Nav | Svcs | Stats | Notes
Area around IS86 (Hendrix Airport)
 
Road maps at: MapQuest Bing Google
 
Aerial photo
No photo
 
Sectional chart

 
Airport distance calculator
Flying to Hendrix Airport? Find the distance to fly.

From to IS86

Sunrise and sunset
Times for 20-Oct-2021
 Local
(UTC-5)
 Zulu
(UTC)
Morning civil twilight06:4311:43
Sunrise07:1112:11
Sunset18:0423:04
Evening civil twilight18:3223:32

Current date and time
Zulu (UTC)  20-Oct-2021 18:41:50
Local (UTC-5)  20-Oct-2021 13:41:50
 
METAR
KIKK 
16nm E 
201814Z AUTO 21011G17KT 10SM CLR 22/12 A3003 RMK AO2
KPNT 
21nm W 
201815Z AUTO 20009KT 10SM CLR 22/10 A3001 RMK AO2 T02210096
KC09 
26nm NW 
201815Z AUTO 19006G10KT 10SM CLR 21/11 A2999 RMK AO2 T02070111
KJOT 
29nm N 
201815Z AUTO 18005KT 10SM CLR 21/12 A2999 RMK AO2 T02070119
TAF
KBMI 
48nm SW 
201737Z 2018/2118 19012G18KT P6SM SCT100 FM210100 22012G18KT P6SM VCSH SCT025 BKN040 FM210600 26012G18KT P6SM SCT100 FM211400 27012G18KT P6SM SCT015 BKN025
KMDW 
49nm NE 
201720Z 2018/2124 20011G18KT P6SM SCT100 BKN250 FM202200 18011KT P6SM VCSH SCT035 BKN050 FM210600 25011KT P6SM BKN035 FM211300 28011G18KT P6SM BKN020
KGYY 
49nm NE 
201720Z 2018/2118 21010G17KT P6SM SCT100 BKN250 FM202300 18010KT P6SM VCSH SCT035 BKN050 FM210800 20011KT P6SM BKN035 FM211400 22010G17KT P6SM BKN020
NOTAMs
Click for the latest NOTAMs
NOTAMs are issued by the DoD/FAA and will open in a separate window not controlled by AirNav.

 

 
 

Would you like to see your business listed on this page?

 If your business provides an interesting product or service to pilots, flight crews, aircraft, or users of the Hendrix Airport, you should consider listing it here.  To start the listing process, click on the button below
 
Add a business
 

Other Pages about Hendrix Airport

Update a link
 
Copyright © AirNav, LLC. All rights reserved. Privacy Policy  Contact